AirNav   Advertisement
 
 1609 users online  

ND33 Dawson Mediport Heliport
Dawson, North Dakota, USA


FAA INFORMATION EFFECTIVE 20 JULY 2017

Location

FAA Identifier: ND33
Lat/Long: 46-52-36.0000N / 099-45-08.4000W
46-52.600000N / 099-45.140000W
46.8766667 / -99.7523333
(estimated)
Elevation: 1750 ft. / 533 m (estimated)
Variation: 08E (2000)
Time zone: UTC -5 (UTC -6 during Standard Time)
Zip code: 58428

Heliport Operations

Heliport use: Private use. Permission required prior to landing
Activation date: 11/2002
Control tower: no
ARTCC: MINNEAPOLIS CENTER
FSS: GRAND FORKS FLIGHT SERVICE STATION
Attendance: UNATNDD
Segmented circle: no

Nearby radio navigation aids

VOR radial/distance  VOR name  Freq  Var
BISr068/38.1BISMARCK VOR/DME116.5012E

Heliport Services

Runway Information

Helipad H1

Dimensions: 30 x 30 ft. / 9 x 9 m
Surface: asphalt
Traffic pattern: leftleft

Heliport Ownership and Management from official FAA records

Ownership: Privately-owned
Owner: DAWSON FIRST RESPONDER TEM
P.O. BOX 214
DAWSON, ND 58428
Phone 701-327-4434
Manager: MONA KAPP
DAWSON FIRST RESPONDER TEAM, P.O. BOX 214
DAWSON, ND 58428
Phone 701-327-4434

Instrument Procedures

There are no published instrument procedures at ND33.

Some nearby airports with instrument procedures:

KBIS - Bismarck Municipal Airport (41 nm W)
46D - Carrington Municipal Airport (42 nm NE)
KJMS - Jamestown Regional Airport (44 nm E)
7L2 - Linton Municipal Airport (44 nm SW)
Y19 - Mandan Municipal Airport (47 nm W)
 
Loc | Ops | Rwys | IFR | FBO | Links
Com | Nav | Svcs | Stats | Notes


 
Area around ND33 (Dawson Mediport Heliport)
 
Road maps at: MapQuest Bing Google
 
Aerial photo
No photo
 
Sectional chart

 
Airport distance calculator
Flying to Dawson Mediport Heliport? Find the distance to fly.

From to ND33

Sunrise and sunset
Times for 26-Jul-2017
 Local
(UTC-5)
 Zulu
(UTC)
Morning civil twilight05:3610:36
Sunrise06:1311:13
Sunset21:1802:18
Evening civil twilight21:5502:55

Current date and time
Zulu (UTC)  26-Jul-2017 15:48:33
Local (UTC-5)  26-Jul-2017 10:48:33
 
METAR
KBIS 
41nm W 
261452Z 34005KT 10SM CLR 26/14 A3012 RMK AO2 SLP191 T02560144 52010
K7L2 
44nm SW 
261535Z AUTO 02007KT 10SM CLR A3013 RMK AO2
KJMS 
45nm E 
261456Z AUTO 33010KT 10SM CLR 23/14 A3009 RMK AO2 SLP183 T02330144 53012
KY19 
47nm W 
261535Z AUTO 01010KT 10SM CLR 24/14 A3014 RMK AO2
TAF
KBIS 
41nm W 
261120Z 2612/2712 36007KT P6SM SKC FM270100 03007KT P6SM SKC FM270600 08003KT P6SM SKC
KJMS 
45nm E 
261120Z 2612/2712 34005KT P6SM FEW100 FM261500 34011KT P6SM FEW035 FM270000 01008KT P6SM SKC FM270400 04004KT P6SM SKC
NOTAMs
Click for the latest NOTAMs
NOTAMs are issued by the DoD/FAA and will open in a separate window not controlled by AirNav.

 

 
 

Would you like to see your business listed on this page?

 If your business provides an interesting product or service to pilots, flight crews, aircraft, or users of the Dawson Mediport Heliport, you should consider listing it here.  To start the listing process, click on the button below
 
Add a business
 

Other Pages about Dawson Mediport Heliport

Update a link
 
Copyright © AirNav, LLC. All rights reserved. Privacy Policy  Contact